Time;durP1;ratioP1;P1;durP2;ratioP2;P2;SDS_P1;SDS_P2;PMS_P1;PMS_P2;Temp;Humidity;BMP_temperature;BMP_pressure;BME280_temperature;BME280_humidity;BME280_pressure;Samples;Min_cycle;Max_cycle;Signal;HPM_P1;HPM_P2
2021/12/22 00:01:52;;;;;;;3.37;1.48;;;;;;;-2.83;72.37;99654.28;4484105;32;20477;-75
2021/12/22 00:04:25;;;;;;;1.92;0.95;;;;;;;-2.92;72.33;99663.00;4499014;31;20445;-75
2021/12/22 00:06:53;;;;;;;2.60;1.40;;;;;;;-2.94;72.31;99657.91;4500029;31;20106;-75
2021/12/22 00:09:21;;;;;;;2.42;1.25;;;;;;;-3.00;72.85;99657.19;4500104;31;20164;-75
2021/12/22 00:11:49;;;;;;;3.85;1.23;;;;;;;-3.06;72.95;99658.16;4499940;31;20108;-75
2021/12/22 00:14:16;;;;;;;2.50;1.35;;;;;;;-3.21;73.65;99657.59;4499907;31;20092;-75
2021/12/22 00:16:44;;;;;;;3.37;1.33;;;;;;;-3.18;73.82;99659.22;4499914;31;20120;-75
2021/12/22 00:19:11;;;;;;;4.82;1.30;;;;;;;-3.08;73.57;99657.34;4499951;31;20092;-75
2021/12/22 00:21:38;;;;;;;4.53;1.77;;;;;;;-3.14;74.01;99668.56;4499889;31;20123;-75
2021/12/22 00:24:05;;;;;;;3.35;1.70;;;;;;;-3.08;73.40;99668.44;4499972;31;20116;-75
2021/12/22 00:26:33;;;;;;;1.37;0.85;;;;;;;-3.29;74.56;99676.53;4499651;31;20110;-75
2021/12/22 00:29:01;;;;;;;2.67;1.65;;;;;;;-3.48;75.55;99671.72;4493331;31;20100;-75
2021/12/22 00:31:30;;;;;;;6.00;1.85;;;;;;;-3.62;76.88;99674.53;4483758;32;20104;-75
2021/12/22 00:33:58;;;;;;;3.55;1.67;;;;;;;-3.79;77.69;99679.06;4484010;31;20092;-75
2021/12/22 00:36:25;;;;;;;3.20;1.50;;;;;;;-3.80;78.36;99682.50;4483783;32;20118;-75
2021/12/22 00:38:53;;;;;;;3.58;2.05;;;;;;;-3.83;78.37;99692.78;4483823;32;20119;-75
2021/12/22 00:41:20;;;;;;;8.77;3.80;;;;;;;-3.96;79.66;99697.25;4483717;32;20115;-75
2021/12/22 00:43:47;;;;;;;13.98;5.80;;;;;;;-3.70;79.08;99699.41;4483982;32;20123;-75
2021/12/22 00:46:14;;;;;;;14.77;5.50;;;;;;;-3.54;81.12;99704.28;4483764;31;20096;-75
2021/12/22 00:48:42;;;;;;;19.90;7.00;;;;;;;-3.50;82.24;99696.50;4483850;31;20092;-75
2021/12/22 00:51:09;;;;;;;16.92;7.53;;;;;;;-3.64;84.64;99708.72;4483596;31;20476;-75
2021/12/22 00:53:36;;;;;;;22.48;9.32;;;;;;;-3.68;85.70;99712.19;4483731;32;20119;-75
2021/12/22 00:56:06;;;;;;;22.40;8.50;;;;;;;-3.89;86.51;99709.09;4483423;32;20108;-75
2021/12/22 00:58:34;;;;;;;23.70;9.95;;;;;;;-3.93;87.68;99702.34;4483529;31;20111;-75
2021/12/22 01:01:01;;;;;;;24.87;9.48;;;;;;;-3.93;88.04;99705.72;4485601;31;20088;-75
2021/12/22 01:03:29;;;;;;;23.92;8.43;;;;;;;-3.97;88.08;99705.78;4494883;31;20457;-75
2021/12/22 01:05:56;;;;;;;20.80;8.15;;;;;;;-3.98;88.01;99722.00;4501590;31;20076;-75
2021/12/22 01:08:23;;;;;;;18.58;9.05;;;;;;;-4.10;88.80;99726.44;4501820;31;20092;-75
2021/12/22 01:10:51;;;;;;;22.15;9.32;;;;;;;-4.00;88.60;99734.00;4501692;31;20092;-75
2021/12/22 01:13:18;;;;;;;19.92;8.93;;;;;;;-3.90;88.18;99733.00;4501658;31;20088;-75
2021/12/22 01:15:45;;;;;;;23.77;8.18;;;;;;;-4.06;88.77;99726.41;4501739;31;20154;-75
2021/12/22 01:18:16;;;;;;;16.83;7.72;;;;;;;-4.06;89.38;99723.84;4501514;31;20137;-75
2021/12/22 01:23:36;;;;;;;22.52;8.60;;;;;;;-3.92;88.49;99722.78;4501672;31;20088;-75
2021/12/22 01:26:04;;;;;;;17.55;8.23;;;;;;;-3.79;88.17;99720.03;4501493;31;20143;-75
2021/12/22 01:28:33;;;;;;;22.02;8.70;;;;;;;-3.77;88.07;99726.84;4498119;31;20101;-75
2021/12/22 01:31:03;;;;;;;23.15;8.35;;;;;;;-3.71;87.63;99719.91;4485562;31;20138;-75
2021/12/22 01:33:30;;;;;;;27.92;8.70;;;;;;;-3.76;87.65;99720.81;4485771;32;20076;-75
2021/12/22 01:35:57;;;;;;;23.70;9.05;;;;;;;-3.88;87.65;99721.00;4485568;31;20111;-75
2021/12/22 01:38:25;;;;;;;22.77;8.95;;;;;;;-4.02;88.37;99728.06;4485684;31;20088;-75
2021/12/22 01:40:54;;;;;;;20.25;8.73;;;;;;;-4.07;88.54;99729.81;4485370;31;20100;-75
2021/12/22 01:43:22;;;;;;;19.73;9.65;;;;;;;-4.02;88.33;99736.56;4485860;32;20096;-75
2021/12/22 01:46:09;;;;;;;19.55;8.35;;;;;;;-3.98;88.16;99730.56;4485522;31;20114;-75
2021/12/22 01:51:41;;;;;;;15.68;7.45;;;;;;;-4.03;88.36;99726.37;4485661;32;20501;-75
2021/12/22 01:54:13;;;;;;;21.95;9.02;;;;;;;-3.99;87.75;99717.78;4484307;32;20597;-75
2021/12/22 01:56:42;;;;;;;19.75;8.65;;;;;;;-4.19;88.24;99718.06;4483049;31;80074;-75
2021/12/22 01:59:10;;;;;;;22.35;7.85;;;;;;;-4.12;88.78;99717.09;4485466;31;20160;-75
2021/12/22 02:01:39;;;;;;;15.30;6.93;;;;;;;-4.18;88.52;99723.16;4485350;31;20123;-75
2021/12/22 02:04:12;;;;;;;18.58;7.95;;;;;;;-4.21;88.95;99733.44;4498603;31;20126;-75
2021/12/22 02:06:40;;;;;;;18.53;7.70;;;;;;;-4.21;89.06;99728.31;4501247;31;20136;-75
2021/12/22 02:09:30;;;;;;;11.48;5.25;;;;;;;-4.43;89.67;99726.91;4501303;31;20168;-75
2021/12/22 02:11:58;;;;;;;12.60;5.90;;;;;;;-4.28;89.90;99742.06;4500898;31;20385;-75
2021/12/22 02:14:25;;;;;;;15.98;6.25;;;;;;;-4.26;89.82;99734.37;4501324;31;20152;-75
2021/12/22 02:16:52;;;;;;;12.05;6.40;;;;;;;-4.31;89.65;99734.44;4501228;31;20103;-75
2021/12/22 02:19:19;;;;;;;17.62;6.20;;;;;;;-4.17;89.35;99732.50;4501231;31;20252;-75
2021/12/22 02:21:52;;;;;;;14.20;6.93;;;;;;;-4.17;89.15;99729.13;4501236;31;20091;-75
2021/12/22 02:24:19;;;;;;;17.90;7.10;;;;;;;-4.11;88.83;99726.47;4501220;31;20381;-75
2021/12/22 02:26:52;;;;;;;13.32;6.20;;;;;;;-4.14;88.27;99735.03;4501300;31;20084;-75
2021/12/22 02:29:34;;;;;;;13.75;5.78;;;;;;;-4.21;87.92;99727.47;4492642;31;20110;-75
2021/12/22 02:32:08;;;;;;;13.75;5.10;;;;;;;-4.12;88.69;99727.34;4485245;31;20088;-75
2021/12/22 02:34:42;;;;;;;;;;;;;;;-4.17;87.93;99724.00;4485900;31;20115;-75
2021/12/22 02:37:13;;;;;;;10.02;5.28;;;;;;;-4.22;87.79;99725.75;4485628;32;19972;-75
2021/12/22 02:40:00;;;;;;;11.77;4.93;;;;;;;-4.18;87.89;99727.41;4485450;31;20080;-75
2021/12/22 02:42:32;;;;;;;18.92;5.45;;;;;;;-4.22;87.48;99724.06;4485330;31;20429;-75
2021/12/22 02:45:12;;;;;;;10.85;4.68;;;;;;;-4.21;87.66;99728.31;4485472;31;20171;-75
2021/12/22 02:47:39;;;;;;;14.23;5.70;;;;;;;-4.26;87.16;99740.31;4485324;31;20085;-75
2021/12/22 02:50:08;;;;;;;8.20;4.55;;;;;;;-4.33;88.02;99739.56;4485648;31;20434;-75
2021/12/22 02:52:49;;;;;;;10.07;5.50;;;;;;;-4.29;87.80;99727.56;4485594;31;20099;-75
2021/12/22 02:55:17;;;;;;;12.57;4.60;;;;;;;-4.23;87.21;99727.47;4485215;31;20167;-75
2021/12/22 02:57:49;;;;;;;11.20;4.97;;;;;;;-4.16;86.47;99731.66;4483877;32;20438;-75
2021/12/22 03:06:08;;;;;;;8.50;4.35;;;;;;;-4.43;86.68;99740.53;4466979;32;20113;-75
2021/12/22 03:08:36;;;;;;;13.93;5.05;;;;;;;-4.14;85.94;99740.16;4466817;32;20116;-75
2021/12/22 03:11:03;;;;;;;9.50;4.60;;;;;;;-4.02;84.81;99734.03;4466710;32;20081;-75
2021/12/22 03:13:31;;;;;;;9.30;4.45;;;;;;;-4.04;84.70;99745.12;4466829;32;20132;-75
2021/12/22 03:15:59;;;;;;;11.15;4.03;;;;;;;-4.25;85.20;99749.69;4466851;32;20109;-75
2021/12/22 03:18:26;;;;;;;9.57;4.60;;;;;;;-4.22;85.50;99751.34;4466740;32;20479;-75
2021/12/22 03:21:02;;;;;;;13.35;4.68;;;;;;;-4.16;84.44;99757.25;4466888;32;20117;-75
2021/12/22 03:23:29;;;;;;;7.95;3.50;;;;;;;-4.21;84.97;99759.03;4466164;32;20568;-75
2021/12/22 03:25:58;;;;;;;9.15;4.20;;;;;;;-4.12;84.65;99751.22;4466760;32;20466;-75
2021/12/22 03:28:26;;;;;;;10.10;4.78;;;;;;;-4.10;84.25;99752.03;4466716;32;20117;-75
2021/12/22 03:30:54;;;;;;;14.75;4.70;;;;;;;-4.01;83.81;99745.09;4466562;32;20147;-75
2021/12/22 03:33:21;;;;;;;6.28;3.42;;;;;;;-3.98;83.77;99747.59;4466650;32;20161;-75
2021/12/22 03:35:48;;;;;;;10.60;3.97;;;;;;;-4.08;83.54;99754.56;4466637;32;20124;-75
2021/12/22 03:38:15;;;;;;;6.97;3.50;;;;;;;-4.01;83.16;99755.31;4482001;32;20104;-75
2021/12/22 03:40:43;;;;;;;11.65;3.95;;;;;;;-4.04;83.32;99757.94;4484608;31;20442;-75
2021/12/22 03:43:10;;;;;;;10.88;4.47;;;;;;;-3.96;83.05;99756.13;4484702;31;20088;-75
2021/12/22 03:45:37;;;;;;;12.15;4.37;;;;;;;-3.88;82.23;99753.47;4484646;31;20100;-75
2021/12/22 03:48:05;;;;;;;8.38;4.25;;;;;;;-4.13;83.05;99764.87;4484852;31;20104;-75
2021/12/22 03:50:32;;;;;;;9.30;4.12;;;;;;;-4.02;83.27;99769.00;4484644;31;20118;-75
2021/12/22 03:52:59;;;;;;;8.88;4.18;;;;;;;-3.99;83.21;99767.25;4484529;31;20088;-75
2021/12/22 03:55:26;;;;;;;9.07;4.12;;;;;;;-3.98;82.69;99768.94;4484590;31;20119;-75
2021/12/22 03:57:55;;;;;;;7.90;3.97;;;;;;;-4.01;82.85;99757.87;4484503;31;20101;-75
2021/12/22 04:00:22;;;;;;;11.48;3.80;;;;;;;-4.07;82.95;99760.53;4484328;31;20422;-75
2021/12/22 04:02:50;;;;;;;12.52;4.05;;;;;;;-4.03;83.08;99768.16;4488967;31;20138;-75
2021/12/22 04:05:18;;;;;;;10.27;4.53;;;;;;;-3.90;82.89;99755.19;4499982;31;20119;-75
2021/12/22 04:07:46;;;;;;;10.45;4.45;;;;;;;-3.79;82.07;99753.31;4500147;31;20160;-75
2021/12/22 04:10:20;;;;;;;9.30;4.25;;;;;;;-3.94;82.59;99772.31;4499945;31;20122;-75
2021/12/22 04:12:49;;;;;;;12.02;4.60;;;;;;;-3.94;82.94;99767.19;4500145;31;20092;-75
2021/12/22 04:15:17;;;;;;;12.40;5.12;;;;;;;-3.90;82.85;99773.97;4500184;31;20437;-75
2021/12/22 04:17:45;;;;;;;15.07;5.05;;;;;;;-3.81;82.52;99771.25;4499706;31;20096;-75
2021/12/22 04:20:12;;;;;;;11.77;4.57;;;;;;;-3.73;82.51;99770.31;4500072;31;20096;-75
2021/12/22 04:22:40;;;;;;;11.05;4.75;;;;;;;-3.86;82.50;99780.72;4499953;31;20441;-75
2021/12/22 04:25:09;;;;;;;8.80;4.25;;;;;;;-3.81;82.45;99783.22;4499863;31;20092;-75
2021/12/22 04:27:37;;;;;;;13.05;4.37;;;;;;;-3.83;82.51;99785.81;4500010;31;20096;-75
2021/12/22 04:30:06;;;;;;;10.25;4.35;;;;;;;-3.88;83.35;99786.72;4499937;31;20165;-75
2021/12/22 04:32:33;;;;;;;9.00;4.87;;;;;;;-3.91;83.51;99787.63;4499652;31;20089;-75
2021/12/22 04:35:00;;;;;;;9.48;4.62;;;;;;;-3.90;83.40;99784.19;4500827;31;20092;-75
2021/12/22 04:37:28;;;;;;;8.23;4.28;;;;;;;-3.93;83.70;99784.25;4502223;31;20507;-75
2021/12/22 04:39:55;;;;;;;11.07;4.45;;;;;;;-3.88;83.83;99792.69;4501761;31;20154;-75
2021/12/22 04:42:22;;;;;;;16.05;5.75;;;;;;;-3.89;83.87;99796.13;4502063;31;20088;-75
2021/12/22 04:44:53;;;;;;;9.05;3.92;;;;;;;-3.82;83.92;99787.47;4501840;31;20085;-75
2021/12/22 04:47:20;;;;;;;8.35;4.28;;;;;;;-3.73;83.68;99783.12;4502077;31;20076;-75
2021/12/22 04:49:48;;;;;;;10.27;4.68;;;;;;;-3.77;83.37;99783.16;4501832;31;20119;-75
2021/12/22 04:52:18;;;;;;;9.52;3.37;;;;;;;-3.80;83.63;99785.75;4502041;31;20147;-75
2021/12/22 04:55:02;;;;;;;9.85;4.25;;;;;;;-3.77;83.81;99782.28;4501728;31;20092;-75
2021/12/22 04:57:31;;;;;;;7.62;4.15;;;;;;;-3.79;83.93;99784.88;4501849;31;20131;-75
2021/12/22 05:00:00;;;;;;;11.05;4.47;;;;;;;-3.77;83.37;99785.72;4501810;31;20118;-75
2021/12/22 05:02:27;;;;;;;10.27;4.95;;;;;;;-3.85;84.03;99781.56;4499359;31;20476;-75
2021/12/22 05:04:55;;;;;;;9.75;4.53;;;;;;;-3.84;83.77;99794.34;4485805;31;20189;-75
2021/12/22 05:07:22;;;;;;;8.73;4.65;;;;;;;-3.99;84.33;99790.28;4486052;32;20107;-75
2021/12/22 05:09:49;;;;;;;11.65;4.43;;;;;;;-3.90;84.36;99788.47;4486108;32;20454;-75
2021/12/22 05:12:16;;;;;;;8.32;5.07;;;;;;;-3.88;83.91;99787.56;4485748;31;20109;-75
2021/12/22 05:14:47;;;;;;;11.15;4.35;;;;;;;-3.73;83.32;99785.69;4485942;31;20118;-75
2021/12/22 05:17:21;;;;;;;9.65;5.10;;;;;;;-3.70;83.18;99790.75;4484714;32;20106;-75
2021/12/22 05:19:48;;;;;;;8.90;4.30;;;;;;;-3.84;83.15;99789.22;4485907;31;20115;-75
2021/12/22 05:22:16;;;;;;;14.93;5.40;;;;;;;-3.76;83.35;99795.06;4485883;32;20101;-75
2021/12/22 05:24:43;;;;;;;15.18;5.07;;;;;;;-3.74;83.71;99784.81;4485622;31;20502;-75
2021/12/22 05:27:13;;;;;;;9.32;4.72;;;;;;;-3.71;83.57;99795.00;4485932;31;20461;-75
2021/12/22 05:29:40;;;;;;;10.40;4.90;;;;;;;-3.75;83.20;99799.34;4494436;31;20088;-75
2021/12/22 05:32:08;;;;;;;10.40;4.97;;;;;;;-3.78;83.67;99798.53;4501281;31;20800;-75
2021/12/22 05:34:35;;;;;;;19.55;5.25;;;;;;;-3.76;83.70;99797.63;4501424;31;20118;-75
2021/12/22 05:37:03;;;;;;;18.37;5.12;;;;;;;-3.71;83.60;99802.69;4492763;31;20092;-75
2021/12/22 05:39:30;;;;;;;12.15;4.95;;;;;;;-3.73;83.72;99801.03;4497167;31;20103;-75
2021/12/22 05:41:59;;;;;;;10.00;4.90;;;;;;;-3.60;83.91;99802.56;4500732;31;20108;-75
2021/12/22 05:44:26;;;;;;;11.77;5.25;;;;;;;-3.62;84.76;99812.81;4500091;31;20104;-75
2021/12/22 05:46:53;;;;;;;11.75;4.93;;;;;;;-3.61;85.08;99816.22;4500346;31;20516;-75
2021/12/22 05:49:21;;;;;;;10.43;5.03;;;;;;;-3.59;85.47;99815.34;4500899;31;20430;-75
2021/12/22 05:51:48;;;;;;;11.48;5.20;;;;;;;-3.53;86.29;99818.66;4499952;31;20119;-75
2021/12/22 05:54:15;;;;;;;12.00;4.35;;;;;;;-3.51;85.03;99822.91;4499848;31;20096;-75
2021/12/22 05:56:43;;;;;;;12.05;5.18;;;;;;;-3.46;85.36;99821.13;4496395;31;20084;-75
2021/12/22 05:59:10;;;;;;;11.30;5.60;;;;;;;-3.50;85.30;99823.75;4500179;31;20092;-75
2021/12/22 06:01:37;;;;;;;11.63;5.03;;;;;;;-3.48;85.19;99827.13;4500969;31;20100;-75
2021/12/22 06:04:06;;;;;;;12.00;5.15;;;;;;;-3.47;84.16;99821.97;4499265;31;20583;-75
2021/12/22 06:06:34;;;;;;;11.43;5.28;;;;;;;-3.48;84.70;99827.97;4500388;31;20116;-75
2021/12/22 06:09:04;;;;;;;13.00;5.70;;;;;;;-3.47;84.52;99823.69;4500072;31;20100;-75
2021/12/22 06:11:31;;;;;;;17.40;5.93;;;;;;;-3.47;84.42;99832.22;4499662;31;20123;-75
2021/12/22 06:13:59;;;;;;;13.62;5.18;;;;;;;-3.56;84.28;99840.03;4500208;31;20100;-75
2021/12/22 06:16:27;;;;;;;9.90;5.00;;;;;;;-3.65;84.59;99845.28;4500530;31;20560;-75
2021/12/22 06:18:58;;;;;;;11.40;4.50;;;;;;;-3.61;85.01;99845.22;4499818;31;20100;-75
2021/12/22 06:21:25;;;;;;;11.77;5.22;;;;;;;-3.59;84.83;99847.78;4499513;31;20115;-75
2021/12/22 06:23:52;;;;;;;12.70;5.95;;;;;;;-3.47;84.38;99860.41;4496264;31;20103;-74
2021/12/22 06:26:19;;;;;;;16.23;5.40;;;;;;;-3.43;84.32;99851.81;4487437;31;20104;-75
2021/12/22 06:28:46;;;;;;;12.18;5.57;;;;;;;-3.46;83.62;99858.69;4495652;31;20131;-75
2021/12/22 06:31:13;;;;;;;11.23;5.12;;;;;;;-3.49;83.71;99856.19;4498907;31;20096;-74
2021/12/22 06:33:41;;;;;;;13.68;5.25;;;;;;;-3.42;83.45;99858.63;4501043;31;20160;-75
2021/12/22 06:36:08;;;;;;;15.70;5.30;;;;;;;-3.41;83.24;99862.91;4497983;31;20158;-75
2021/12/22 06:38:35;;;;;;;11.73;5.37;;;;;;;-3.38;83.05;99859.41;4498367;31;20141;-75
2021/12/22 06:41:04;;;;;;;12.60;5.53;;;;;;;-3.36;82.92;99860.25;4494760;31;20132;-75
2021/12/22 06:43:31;;;;;;;14.52;6.32;;;;;;;-3.38;82.76;99869.66;4499640;31;20100;-75
2021/12/22 06:45:58;;;;;;;14.07;6.65;;;;;;;-3.41;82.40;99875.72;4497312;31;20101;-75
2021/12/22 06:48:25;;;;;;;19.87;6.82;;;;;;;-3.44;82.64;99875.72;4488817;31;20135;-75
2021/12/22 06:50:52;;;;;;;11.38;5.57;;;;;;;-3.42;82.70;99878.28;4490107;31;20153;-75
2021/12/22 06:53:19;;;;;;;15.73;6.00;;;;;;;-3.40;82.97;99887.63;4496997;31;20092;-75
2021/12/22 06:55:47;;;;;;;11.02;5.30;;;;;;;-3.66;83.58;99895.69;4494696;31;20453;-75
2021/12/22 06:58:14;;;;;;;12.50;6.00;;;;;;;-3.59;83.73;99896.44;4497376;31;20484;-75
2021/12/22 07:00:42;;;;;;;25.77;6.53;;;;;;;-3.51;83.23;99894.63;4498981;31;20104;-75
2021/12/22 07:03:09;;;;;;;10.65;5.43;;;;;;;-3.45;82.88;99889.41;4493889;31;20123;-75
2021/12/22 07:05:37;;;;;;;12.25;5.57;;;;;;;-3.50;83.09;99895.47;4493810;31;20587;-75
2021/12/22 07:08:04;;;;;;;15.05;6.10;;;;;;;-3.33;82.17;99895.22;4499934;31;20452;-75
2021/12/22 07:10:31;;;;;;;19.00;8.32;;;;;;;-3.31;81.89;99901.19;4499696;31;20093;-75
2021/12/22 07:12:58;;;;;;;13.62;6.35;;;;;;;-3.27;81.32;99898.56;4500183;31;20096;-75
2021/12/22 07:15:25;;;;;;;21.20;7.03;;;;;;;-3.21;81.13;99901.03;4489786;31;20103;-75
2021/12/22 07:17:53;;;;;;;13.30;6.68;;;;;;;-3.23;80.91;99899.34;4497631;31;20147;-76
2021/12/22 07:20:20;;;;;;;17.65;6.93;;;;;;;-3.21;80.85;99897.59;4492986;31;20575;-75
2021/12/22 07:22:47;;;;;;;17.55;6.03;;;;;;;-3.18;80.78;99892.44;4497879;31;20130;-76
2021/12/22 07:25:18;;;;;;;13.30;6.57;;;;;;;-3.16;79.99;99894.97;4498925;31;20171;-75
2021/12/22 07:27:45;;;;;;;14.57;6.75;;;;;;;-3.15;80.14;99901.81;4500761;31;20961;-75
2021/12/22 07:30:13;;;;;;;11.05;5.57;;;;;;;-3.08;79.88;99905.97;4499573;31;20908;-76
2021/12/22 07:32:40;;;;;;;17.90;7.40;;;;;;;-2.94;79.34;99908.31;4499549;31;20144;-76
2021/12/22 07:35:32;;;;;;;19.50;7.65;;;;;;;-2.91;78.73;99910.84;4500449;31;20442;-76
2021/12/22 07:38:07;;;;;;;18.98;8.30;;;;;;;-2.81;78.80;99899.56;4500649;31;20087;-75
2021/12/22 07:40:34;;;;;;;22.75;7.82;;;;;;;-2.90;79.02;99913.38;4485922;31;20156;-75
2021/12/22 07:43:02;;;;;;;28.15;8.75;;;;;;;-3.00;79.62;99913.53;4497590;31;20112;-75
2021/12/22 07:45:29;;;;;;;24.52;9.40;;;;;;;-3.14;80.56;99904.34;4493074;31;20099;-76
2021/12/22 07:47:56;;;;;;;21.77;7.95;;;;;;;-3.01;80.03;99910.16;4488977;31;20148;-76
2021/12/22 07:50:24;;;;;;;15.80;7.53;;;;;;;-3.00;80.63;99916.94;4498423;31;20107;-75
2021/12/22 07:52:51;;;;;;;18.98;8.32;;;;;;;-2.96;81.50;99916.03;4494995;31;20131;-76
2021/12/22 07:55:18;;;;;;;17.20;7.30;;;;;;;-2.95;80.39;99927.13;4483998;31;20571;-75
2021/12/22 07:57:46;;;;;;;14.27;7.45;;;;;;;-2.81;80.08;99932.91;4494709;31;20084;-76
2021/12/22 08:00:13;;;;;;;17.12;6.78;;;;;;;-2.56;79.51;99938.50;4492396;31;20115;-75
2021/12/22 08:02:41;;;;;;;12.77;6.28;;;;;;;-2.20;77.01;99936.12;4486548;31;20096;-76
2021/12/22 08:05:28;;;;;;;16.30;6.62;;;;;;;-2.25;76.93;99937.09;4499747;31;20091;-75
2021/12/22 08:07:56;;;;;;;14.48;6.62;;;;;;;-2.35;77.36;99926.16;4489435;31;20575;-75
2021/12/22 08:10:23;;;;;;;11.45;5.70;;;;;;;-2.10;76.34;99931.69;4499183;31;20104;-76
2021/12/22 08:12:50;;;;;;;21.70;5.97;;;;;;;-2.27;76.69;99936.28;4489212;31;20100;-75
2021/12/22 08:15:17;;;;;;;11.50;5.28;;;;;;;-2.42;77.64;99940.81;4501758;31;20108;-75
2021/12/22 08:17:44;;;;;;;13.10;5.43;;;;;;;-2.16;77.23;99948.03;4501628;31;20126;-75
2021/12/22 08:20:12;;;;;;;13.23;5.80;;;;;;;-2.09;76.68;99953.94;4501311;31;20165;-75
2021/12/22 08:22:39;;;;;;;16.25;5.62;;;;;;;-2.00;75.24;99948.63;4485180;32;20537;-75
2021/12/22 08:25:07;;;;;;;13.50;7.03;;;;;;;-1.83;73.62;99944.88;4489273;31;20150;-75
2021/12/22 08:27:34;;;;;;;14.10;6.68;;;;;;;-1.95;75.12;99953.66;4499659;31;20111;-75
2021/12/22 08:30:04;;;;;;;15.55;7.22;;;;;;;-1.88;74.80;99956.94;4489480;31;20092;-76
2021/12/22 08:32:32;;;;;;;15.65;6.60;;;;;;;-1.80;72.82;99955.94;4487242;31;20156;-76
2021/12/22 08:35:03;;;;;;;13.00;5.72;;;;;;;-1.73;72.58;99958.38;4491415;31;20143;-75
2021/12/22 08:40:17;;;;;;;13.90;7.00;;;;;;;-1.51;71.11;99961.38;4499121;31;20088;-76
2021/12/22 08:42:45;;;;;;;14.98;6.32;;;;;;;-1.49;69.70;99960.44;4497928;31;20120;-75
2021/12/22 08:45:13;;;;;;;18.35;5.37;;;;;;;-1.29;70.52;99969.47;4485095;31;20130;-75
2021/12/22 08:47:40;;;;;;;12.95;5.80;;;;;;;-1.26;68.65;99970.28;4495287;31;20092;-75
2021/12/22 08:50:11;;;;;;;9.23;4.85;;;;;;;-1.02;70.23;99968.03;4497534;31;20103;-75
2021/12/22 08:52:38;;;;;;;13.65;5.55;;;;;;;-1.38;69.14;99967.94;4491637;31;20160;-75
2021/12/22 08:55:07;;;;;;;13.73;5.90;;;;;;;-1.51;69.08;99971.66;4498903;31;20150;-75
2021/12/22 08:57:34;;;;;;;11.90;5.12;;;;;;;-1.41;70.67;99973.13;4500321;31;20076;-75
2021/12/22 09:00:06;;;;;;;11.77;5.18;;;;;;;-1.52;68.76;99975.09;4490878;31;20590;-75
2021/12/22 09:02:33;;;;;;;12.98;4.57;;;;;;;-1.19;67.93;99983.00;4493073;31;20126;-75
2021/12/22 09:05:01;;;;;;;12.37;5.35;;;;;;;-1.02;67.39;99974.91;4488736;31;20105;-75
2021/12/22 09:07:28;;;;;;;18.48;5.55;;;;;;;-0.96;66.06;99979.91;4496820;31;20386;-75
2021/12/22 09:09:55;;;;;;;12.20;5.18;;;;;;;-1.00;66.77;99974.00;4493362;31;20100;-75
2021/12/22 09:12:22;;;;;;;10.75;5.12;;;;;;;-0.91;65.91;99976.34;4489412;31;20127;-75
2021/12/22 09:14:49;;;;;;;10.75;5.72;;;;;;;-0.65;65.81;99974.03;4498587;31;20104;-75
2021/12/22 09:17:16;;;;;;;11.73;5.35;;;;;;;-0.44;65.44;99970.97;4489255;31;20100;-75
2021/12/22 09:19:44;;;;;;;13.27;5.80;;;;;;;-0.32;65.02;99974.94;4494583;31;20100;-75
2021/12/22 09:22:11;;;;;;;14.75;5.70;;;;;;;-0.23;63.66;99966.16;4488109;31;20080;-75
2021/12/22 09:24:38;;;;;;;9.60;5.32;;;;;;;-0.17;62.85;99970.31;4497126;31;20104;-75
2021/12/22 09:27:05;;;;;;;15.30;5.70;;;;;;;-0.57;62.56;99972.97;4488248;31;20119;-75
2021/12/22 09:29:32;;;;;;;14.82;5.90;;;;;;;-0.88;64.01;99972.00;4496656;31;20107;-75
2021/12/22 09:31:59;;;;;;;13.70;5.97;;;;;;;-0.67;64.62;99974.06;4500667;31;20088;-75
2021/12/22 09:34:27;;;;;;;15.38;6.25;;;;;;;-0.52;63.35;99975.44;4490574;31;20105;-75
2021/12/22 09:36:54;;;;;;;10.93;6.28;;;;;;;-0.64;64.54;99981.72;4498506;31;20483;-75
2021/12/22 09:39:21;;;;;;;13.93;6.40;;;;;;;-0.36;64.94;99979.34;4489291;31;20100;-75
2021/12/22 09:41:50;;;;;;;14.18;5.80;;;;;;;-0.16;64.02;99982.31;4500964;31;20108;-75
2021/12/22 09:44:17;;;;;;;14.02;6.70;;;;;;;-0.19;62.73;99976.31;4492025;31;20104;-75
2021/12/22 09:46:49;;;;;;;15.13;6.43;;;;;;;-0.61;62.84;99976.50;4501178;31;20088;-75
2021/12/22 09:49:23;;;;;;;16.12;6.03;;;;;;;-0.62;64.79;99977.41;4494496;31;20160;-76
2021/12/22 09:54:41;;;;;;;13.50;6.20;;;;;;;-0.50;63.00;99967.69;4489073;31;20088;-75
2021/12/22 09:57:09;;;;;;;14.82;5.75;;;;;;;-0.67;63.36;99965.53;4497000;31;20092;-75
2021/12/22 09:59:37;;;;;;;15.57;6.00;;;;;;;-0.58;64.39;99971.28;4491023;31;20200;-76
2021/12/22 10:02:04;;;;;;;17.70;6.90;;;;;;;-0.93;63.90;99965.25;4492432;31;20142;-76
2021/12/22 10:04:32;;;;;;;11.68;5.80;;;;;;;-1.19;66.16;99967.56;4489782;31;20115;-75
2021/12/22 10:07:04;;;;;;;16.20;5.78;;;;;;;-0.91;65.60;99962.63;4500230;31;20131;-76
2021/12/22 10:09:31;;;;;;;13.13;6.22;;;;;;;-0.80;64.90;99965.81;4496346;31;20108;-75
2021/12/22 10:12:04;;;;;;;15.13;6.55;;;;;;;-0.64;63.66;99970.59;4492386;31;20126;-75
2021/12/22 10:14:54;;;;;;;12.85;5.45;;;;;;;-0.72;63.31;99973.34;4498393;31;20523;-75
2021/12/22 10:17:55;;;;;;;10.88;5.47;;;;;;;-0.61;62.61;99962.81;4497311;31;20096;-76
2021/12/22 10:20:22;;;;;;;21.15;7.00;;;;;;;-0.26;63.64;99971.37;4435401;32;20105;-76
2021/12/22 10:22:50;;;;;;;11.30;5.55;;;;;;;-0.19;62.39;99960.88;4448599;32;20113;-76
2021/12/22 10:25:21;;;;;;;18.87;6.95;;;;;;;0.01;62.01;99959.50;4435473;32;20169;-75
2021/12/22 10:28:06;;;;;;;18.73;6.05;;;;;;;-0.54;64.11;99962.59;4432669;32;20089;-75
2021/12/22 10:30:36;;;;;;;14.23;6.37;;;;;;;-0.49;64.87;99961.66;4430166;32;20162;-75
2021/12/22 10:33:18;;;;;;;17.17;6.45;;;;;;;-0.28;63.62;99958.53;4427475;32;20457;-75
2021/12/22 10:35:49;;;;;;;15.95;7.12;;;;;;;-0.07;64.17;99954.56;4428476;32;20175;-76
2021/12/22 10:38:20;;;;;;;17.02;6.82;;;;;;;0.27;63.62;99951.09;4431304;32;20097;-76
2021/12/22 10:41:08;;;;;;;14.90;6.35;;;;;;;-0.14;63.82;99959.91;4434130;32;20573;-76
2021/12/22 10:43:41;;;;;;;13.48;6.57;;;;;;;-0.32;64.46;99956.09;4433535;32;20101;-76
2021/12/22 10:46:16;;;;;;;12.90;6.43;;;;;;;0.10;62.99;99950.69;4444657;32;20112;-76
2021/12/22 10:51:36;;;;;;;16.90;5.65;;;;;;;0.42;62.24;99954.94;4425097;32;20050;-76
2021/12/22 10:54:09;;;;;;;14.93;7.03;;;;;;;0.34;62.36;99952.59;4431853;32;20105;-76
2021/12/22 10:56:39;;;;;;;19.73;8.45;;;;;;;0.04;65.25;99941.38;4482995;31;20088;-76
2021/12/22 10:59:10;;;;;;;22.13;8.90;;;;;;;0.38;64.78;99950.78;4500144;31;20091;-76
2021/12/22 11:02:06;;;;;;;15.70;6.85;;;;;;;0.63;65.79;99948.31;4499829;31;20150;-76
2021/12/22 11:04:35;;;;;;;16.40;7.70;;;;;;;0.69;63.48;99945.56;4498126;31;20178;-76
2021/12/22 11:07:11;;;;;;;16.70;7.07;;;;;;;0.88;63.11;99942.44;4499125;31;20162;-76
2021/12/22 11:09:38;;;;;;;18.87;7.82;;;;;;;0.82;63.89;99943.47;4499646;31;20091;-76
2021/12/22 11:12:07;;;;;;;15.30;8.45;;;;;;;0.83;64.50;99942.59;4493272;31;20119;-76
2021/12/22 11:14:39;;;;;;;20.90;8.40;;;;;;;0.86;64.51;99937.34;4495013;31;20160;-76
2021/12/22 11:17:10;;;;;;;16.42;7.75;;;;;;;0.73;64.94;99941.16;4500098;31;20204;-76
2021/12/22 11:19:52;;;;;;;19.15;7.93;;;;;;;0.81;64.94;99944.34;4500252;31;20092;-76
2021/12/22 11:22:35;;;;;;;13.25;6.82;;;;;;;0.74;64.57;99942.84;4492113;31;20103;-76
2021/12/22 11:25:05;;;;;;;20.48;7.78;;;;;;;0.60;64.58;99932.09;4494736;31;20165;-76
2021/12/22 11:27:32;;;;;;;15.25;8.25;;;;;;;0.58;64.75;99932.16;4497499;31;20119;-76
2021/12/22 11:30:00;;;;;;;20.75;7.90;;;;;;;0.83;64.18;99928.81;4489428;31;20084;-76
2021/12/22 11:32:29;;;;;;;19.62;8.27;;;;;;;0.87;63.51;99925.28;4496834;31;20437;-76
2021/12/22 11:34:59;;;;;;;18.08;7.75;;;;;;;0.76;63.71;99922.16;4499211;31;20484;-76
2021/12/22 11:37:27;;;;;;;18.30;8.02;;;;;;;0.80;63.26;99923.75;4500198;31;20393;-76
2021/12/22 11:39:57;;;;;;;17.98;8.52;;;;;;;0.73;63.89;99914.50;4500215;31;20101;-76
2021/12/22 11:42:30;;;;;;;19.48;8.70;;;;;;;0.68;64.58;99910.37;4500399;31;20107;-76
2021/12/22 11:45:07;;;;;;;22.10;9.45;;;;;;;0.65;66.17;99918.19;4500315;31;20084;-76
2021/12/22 11:47:36;;;;;;;27.13;9.40;;;;;;;0.87;65.38;99913.19;4500713;31;20088;-76
2021/12/22 11:50:05;;;;;;;24.02;9.13;;;;;;;0.82;65.53;99909.94;4498777;31;20079;-76
2021/12/22 11:52:37;;;;;;;24.33;9.48;;;;;;;0.75;66.00;99905.84;4500032;31;20122;-76
2021/12/22 11:55:17;;;;;;;25.65;8.75;;;;;;;0.79;66.22;99906.59;4500645;31;20088;-75
2021/12/22 11:57:47;;;;;;;19.73;9.10;;;;;;;0.87;63.87;99904.63;4500380;31;20084;-76